• Join FlightAware (Why Join?)
  • Login
  • US Flag 
04:08AM EDT


 

Airport Tracker/Info


-or-


 

Live Flight TrackerFlight Track Log ✈ KLM765 ✈ 25-Apr-2013 ✈ TNCA / AUA - TNCB / BON

Flight Track Log - Related Links

Times and Time Zones

All times are in EDT time to prevent confusion due to time zone crossing. See the KLM765 flight status page for this flight to view local times or setup timezone preferences in your user account.

Time Position Orientation Groundspeed Altitude Reporting Facility
EDT Latitude Longitude Course Direction KTS MPH feet Rate Location/Type
05:57PM 12.4026 -69.5436 102° East  Level Estimated
05:58PM 12.3955 -69.5099 102° East  Level Estimated
05:59PM 12.3884 -69.4763 102° East  Level Estimated
06:00PM 12.3813 -69.4426 102° East  Level Estimated
06:01PM 12.3742 -69.4089 102° East  Level Estimated
06:02PM 12.3627 -69.3542 102° East  Level Estimated
06:03PM 12.3511 -69.2995 102° East  Level Estimated
06:04PM 12.3395 -69.2449 102° East  Level Estimated
06:05PM 12.3280 -69.1902 102° East  Level Estimated
06:06PM 12.3164 -69.1355 102° East  Level Estimated
06:07PM 12.3048 -69.0808 102° East  Level Estimated
06:08PM 12.2932 -69.0261 102° East  Level Estimated
06:09PM 12.2815 -68.9714 102° East  Level Estimated
06:10PM 12.2699 -68.9168 102° East  Level Estimated
06:11PM 12.2583 -68.8621 102° East  Level Estimated
06:12PM 12.2466 -68.8074 102° East  Level Estimated
06:13PM 12.2349 -68.7528 102° East  Level Estimated
06:14PM 12.2233 -68.6982 102° East  Level Estimated
06:15PM 12.2116 -68.6435 102° East  Level Estimated
06:16PM 12.1999 -68.5889 102° East  Level Estimated
06:17PM 12.1882 -68.5342 102° East  Level Estimated
06:18PM 12.1764 -68.4796 102° East  Level Estimated
06:19PM 12.1647 -68.4250 102° East  Level Estimated
06:20PM 12.1530 -68.3704 102° East  Level Estimated
06:21PM 12.1412 -68.3158 102° East  Level Estimated
06:22PM 12.1310 -68.2685 102° East  Level Estimated
06:23PM 12.1310 -68.2685 346° North  Level Estimated
06:24PM 12.1310 -68.2685 346° North  Level Estimated
06:25PM 12.1310 -68.2685 346° North  Level Estimated
06:26PM 12.1310 -68.2685 346° North  Level Estimated
06:27PM 12.1310 -68.2685 346° North  Level Estimated
06:28PM 12.1310 -68.2685 346° North  Level Estimated
06:29PM 12.1310 -68.2685 346° North  Level Estimated
06:30PM 12.1310 -68.2685 346° North  Level Estimated
06:31PM 12.1310 -68.2685 346° North  Level Estimated